createdAt,value
2023-05-04T00:02:34.730Z,99.90
2023-05-04T00:05:23.120Z,99.90
2023-05-04T00:08:10.996Z,99.90
2023-05-04T00:10:59.028Z,99.90
2023-05-04T00:13:46.974Z,99.90
2023-05-04T00:16:36.696Z,99.90
2023-05-04T00:19:24.707Z,99.90
2023-05-04T00:22:12.926Z,99.90
2023-05-04T00:25:01.068Z,99.90
2023-05-04T00:27:49.015Z,99.90
2023-05-04T00:30:37.334Z,99.90
2023-05-04T00:33:26.719Z,99.90
2023-05-04T00:36:14.840Z,99.90
2023-05-04T00:39:02.810Z,99.90
2023-05-04T00:41:50.746Z,99.90
2023-05-04T00:44:41.373Z,99.90
2023-05-04T00:47:30.785Z,99.90
2023-05-04T00:50:20.718Z,99.90
2023-05-04T00:53:10.292Z,99.90
2023-05-04T00:55:58.920Z,99.90
2023-05-04T00:58:47.198Z,99.90
2023-05-04T01:01:35.306Z,99.90
2023-05-04T01:04:23.366Z,99.90
2023-05-04T01:07:21.100Z,99.90
2023-05-04T01:10:14.782Z,99.90
2023-05-04T01:13:08.448Z,99.90
2023-05-04T01:15:56.679Z,99.90
2023-05-04T01:18:44.750Z,99.90
2023-05-04T01:21:35.546Z,99.90
2023-05-04T01:24:24.128Z,99.90
2023-05-04T01:27:18.380Z,99.90
2023-05-04T01:30:12.289Z,99.90
2023-05-04T01:33:02.047Z,99.90
2023-05-04T01:35:50.733Z,99.90
2023-05-04T01:38:40.159Z,99.90
2023-05-04T01:41:28.837Z,99.90
2023-05-04T01:44:17.449Z,99.90
2023-05-04T01:47:05.495Z,99.90
2023-05-04T01:49:53.472Z,99.90
2023-05-04T01:52:41.463Z,99.90
2023-05-04T01:55:31.531Z,99.90
2023-05-04T01:58:19.667Z,99.90
2023-05-04T02:01:08.118Z,99.90
2023-05-04T02:03:56.149Z,99.90
2023-05-04T02:06:44.245Z,99.90
2023-05-04T02:09:32.441Z,99.90
2023-05-04T02:12:21.753Z,99.90
2023-05-04T02:15:10.850Z,99.90
2023-05-04T02:17:58.781Z,99.90
2023-05-04T02:20:46.778Z,99.90
2023-05-04T02:23:34.730Z,99.90
2023-05-04T02:26:22.692Z,99.90
2023-05-04T02:29:11.928Z,99.90
2023-05-04T02:31:59.923Z,99.90
2023-05-04T02:34:47.943Z,99.90
2023-05-04T02:37:35.913Z,99.90
2023-05-04T02:40:23.935Z,99.90
2023-05-04T02:43:11.878Z,99.90
2023-05-04T02:46:01.245Z,99.90
2023-05-04T02:48:49.493Z,99.90
2023-05-04T02:51:37.431Z,99.90
2023-05-04T02:54:25.445Z,99.90
2023-05-04T02:57:13.441Z,99.90
2023-05-04T03:00:01.463Z,99.90
2023-05-04T03:02:50.998Z,99.90
2023-05-04T03:05:38.994Z,99.90
2023-05-04T03:08:27.150Z,99.90
2023-05-04T03:11:15.312Z,99.90
2023-05-04T03:14:03.411Z,99.90
2023-05-04T03:16:51.527Z,99.90
2023-05-04T03:19:41.074Z,99.90
2023-05-04T03:22:29.042Z,99.90
2023-05-04T03:25:17.368Z,99.90
2023-05-04T03:28:05.787Z,99.90
2023-05-04T03:30:53.845Z,99.90
2023-05-04T03:33:41.754Z,99.90
2023-05-04T03:36:31.284Z,99.90
2023-05-04T03:39:19.191Z,99.90
2023-05-04T03:42:07.120Z,99.90
2023-05-04T03:44:55.220Z,99.90
2023-05-04T03:47:43.222Z,99.90
2023-05-04T03:50:31.908Z,99.90
2023-05-04T03:53:21.319Z,99.90
2023-05-04T03:56:09.626Z,99.90
2023-05-04T03:58:57.628Z,99.90
2023-05-04T04:01:46.093Z,99.90
2023-05-04T04:04:34.180Z,99.90
2023-05-04T04:07:22.242Z,99.90
2023-05-04T04:10:12.366Z,99.90
2023-05-04T04:13:00.302Z,99.90
2023-05-04T04:15:48.310Z,99.90
2023-05-04T04:18:36.331Z,99.90
2023-05-04T04:21:24.281Z,99.90
2023-05-04T04:24:12.404Z,99.90
2023-05-04T04:27:02.820Z,99.90
2023-05-04T04:29:50.785Z,99.90
2023-05-04T04:32:38.794Z,99.90
2023-05-04T04:35:27.490Z,99.90
2023-05-04T04:38:15.546Z,99.90
2023-05-04T04:41:03.475Z,99.90
2023-05-04T04:43:52.741Z,99.90
2023-05-04T04:46:40.724Z,99.90
2023-05-04T04:49:28.831Z,99.90
2023-05-04T04:52:17.263Z,99.90
2023-05-04T04:55:05.685Z,99.90
2023-05-04T04:57:54.515Z,99.90
2023-05-04T05:00:45.379Z,99.90
2023-05-04T05:03:33.789Z,99.90
2023-05-04T05:06:22.162Z,99.90
2023-05-04T05:09:10.493Z,99.90
2023-05-04T05:11:58.421Z,99.90
2023-05-04T05:14:47.273Z,99.90
2023-05-04T05:17:37.549Z,99.90
2023-05-04T05:20:25.985Z,99.90
2023-05-04T05:23:14.018Z,99.90
2023-05-04T05:26:03.387Z,99.90
2023-05-04T05:28:51.977Z,99.90
2023-05-04T05:31:40.064Z,99.90
2023-05-04T05:34:29.662Z,99.90
2023-05-04T05:37:17.591Z,99.90
2023-05-04T05:40:07.949Z,99.90
2023-05-04T05:42:56.090Z,99.90
2023-05-04T05:45:44.064Z,99.90
2023-05-04T05:48:31.913Z,99.90
2023-05-04T05:51:21.366Z,99.90
2023-05-04T05:54:09.247Z,99.90
2023-05-04T05:56:57.190Z,99.90
2023-05-04T05:59:45.084Z,99.90
2023-05-04T06:02:33.108Z,99.90
2023-05-04T06:05:21.031Z,99.90
2023-05-04T06:08:10.390Z,99.90
2023-05-04T06:10:58.310Z,99.90
2023-05-04T06:13:46.221Z,99.90
2023-05-04T06:16:34.246Z,99.90
2023-05-04T06:19:22.136Z,99.90
2023-05-04T06:22:10.064Z,99.90
2023-05-04T06:25:03.678Z,99.90
2023-05-04T06:27:53.939Z,99.90
2023-05-04T06:30:41.850Z,99.90
2023-05-04T06:33:29.892Z,99.90
2023-05-04T06:36:17.887Z,99.90
2023-05-04T06:39:05.803Z,99.90
2023-05-04T06:41:56.265Z,99.90
2023-05-04T06:44:44.243Z,99.90
2023-05-04T06:47:32.279Z,99.90
2023-05-04T06:50:20.405Z,99.90
2023-05-04T06:53:10.162Z,99.90
2023-05-04T06:55:58.103Z,99.90
2023-05-04T06:58:47.458Z,99.90
2023-05-04T07:01:35.449Z,99.90
2023-05-04T07:04:23.583Z,99.90
2023-05-04T07:07:11.481Z,99.90
2023-05-04T07:09:59.427Z,99.90
2023-05-04T07:12:47.913Z,99.90
2023-05-04T07:15:37.347Z,99.90
2023-05-04T07:18:25.273Z,99.90
2023-05-04T07:24:05.247Z,99.90
2023-05-04T07:26:53.208Z,99.90
2023-05-04T07:29:41.643Z,99.90
2023-05-04T07:32:31.010Z,99.90
2023-05-04T07:35:19.049Z,99.90
2023-05-04T07:38:08.201Z,99.90
2023-05-04T07:40:56.522Z,99.90
2023-05-04T07:43:44.490Z,99.90
2023-05-04T07:46:32.501Z,99.90
2023-05-04T07:49:21.731Z,99.90
2023-05-04T07:52:09.703Z,99.90
2023-05-04T07:54:57.874Z,99.90
2023-05-04T07:57:45.816Z,99.90
2023-05-04T08:00:33.697Z,99.90
2023-05-04T08:03:21.714Z,99.90
2023-05-04T08:06:11.012Z,99.90
2023-05-04T08:08:59.251Z,99.90
2023-05-04T08:11:48.220Z,99.90
2023-05-04T08:14:38.424Z,99.90
2023-05-04T08:17:26.978Z,99.90
2023-05-04T08:20:15.278Z,99.90
2023-05-04T08:23:05.056Z,99.90
2023-05-04T08:25:53.480Z,99.90
2023-05-04T08:28:41.716Z,99.90
2023-05-04T08:31:30.220Z,99.90
2023-05-04T08:34:18.122Z,99.90
2023-05-04T08:37:06.139Z,99.90
2023-05-04T08:39:55.507Z,99.90
2023-05-04T08:42:48.005Z,99.90
2023-05-04T08:45:39.486Z,99.90
2023-05-04T08:48:27.694Z,99.90
2023-05-04T08:51:16.103Z,99.90
2023-05-04T08:54:07.784Z,99.90
2023-05-04T08:56:58.809Z,99.90
2023-05-04T08:59:50.429Z,99.90
2023-05-04T09:02:39.040Z,99.90
2023-05-04T09:05:27.530Z,99.90
2023-05-04T09:08:16.403Z,99.90
2023-05-04T09:11:04.857Z,99.90
2023-05-04T09:13:54.189Z,99.90
2023-05-04T09:16:42.563Z,99.90
2023-05-04T09:19:33.656Z,99.90
2023-05-04T09:22:21.701Z,99.90
2023-05-04T09:25:11.759Z,99.90
2023-05-04T09:27:59.913Z,99.90
2023-05-04T09:30:49.805Z,99.90
2023-05-04T09:33:37.923Z,99.90
2023-05-04T09:36:26.663Z,99.90
2023-05-04T09:39:16.126Z,99.90
2023-05-04T09:42:04.930Z,99.90
2023-05-04T09:45:03.166Z,99.90
2023-05-04T09:47:54.338Z,99.90
2023-05-04T09:50:49.589Z,99.90
2023-05-04T09:53:41.989Z,99.90
2023-05-04T09:56:38.575Z,99.90
2023-05-04T09:59:31.678Z,99.90
2023-05-04T10:02:23.293Z,99.90
2023-05-04T10:05:17.112Z,99.90
2023-05-04T10:08:06.604Z,99.90
2023-05-04T10:10:55.685Z,99.90
2023-05-04T10:13:43.683Z,99.90
2023-05-04T10:16:42.571Z,99.90
2023-05-04T10:19:43.639Z,99.90
2023-05-04T10:22:49.688Z,99.90
2023-05-04T10:25:52.640Z,99.90
2023-05-04T10:28:50.769Z,99.90
2023-05-04T10:31:40.475Z,99.90
2023-05-04T10:34:30.805Z,99.90
2023-05-04T10:37:20.437Z,99.90
2023-05-04T10:40:10.880Z,99.90
2023-05-04T10:42:58.785Z,99.90
2023-05-04T10:45:46.740Z,99.90
2023-05-04T10:48:35.886Z,99.90
2023-05-04T10:51:30.123Z,99.90
2023-05-04T10:54:23.800Z,99.90
2023-05-04T10:57:17.072Z,99.90
2023-05-04T11:00:05.808Z,99.90
2023-05-04T11:03:04.236Z,99.40
2023-05-04T11:05:54.717Z,96.30
2023-05-04T11:08:43.126Z,97.70
2023-05-04T11:11:31.069Z,97.80
2023-05-04T11:14:25.963Z,99.20
2023-05-04T11:20:08.000Z,97.80
2023-05-04T11:22:56.197Z,98.80
2023-05-04T11:25:44.283Z,97.70
2023-05-04T11:28:35.985Z,98.50
2023-05-04T11:31:25.802Z,98.80
2023-05-04T11:34:21.047Z,98.30
2023-05-04T11:37:08.957Z,97.70
2023-05-04T11:39:58.097Z,98.30
2023-05-04T11:42:46.448Z,97.90
2023-05-04T11:45:37.643Z,98.90
2023-05-04T11:48:27.941Z,98.50
2023-05-04T11:51:15.924Z,99.50
2023-05-04T11:54:04.046Z,98.00
2023-05-04T11:56:51.987Z,97.70
2023-05-04T11:59:49.638Z,99.30
2023-05-04T12:02:37.662Z,99.90
2023-05-04T12:05:28.588Z,98.40
2023-05-04T12:08:27.551Z,97.30
2023-05-04T12:11:20.341Z,99.50
2023-05-04T12:14:10.389Z,98.20
2023-05-04T12:17:01.752Z,99.00
2023-05-04T12:19:54.186Z,97.80
2023-05-04T12:22:43.724Z,98.20
2023-05-04T12:25:31.655Z,98.70
2023-05-04T12:28:20.762Z,98.80
2023-05-04T12:31:09.360Z,98.00
2023-05-04T12:33:57.337Z,95.60
2023-05-04T12:36:45.401Z,96.50
2023-05-04T12:39:34.688Z,96.90
2023-05-04T12:42:22.712Z,98.60
2023-05-04T12:45:11.579Z,98.80
2023-05-04T12:47:59.558Z,99.40
2023-05-04T12:50:48.550Z,99.70
2023-05-04T12:53:36.943Z,99.00
2023-05-04T12:56:26.309Z,98.80
2023-05-04T12:59:14.542Z,99.50
2023-05-04T13:02:02.771Z,98.70
2023-05-04T13:04:50.706Z,99.10
2023-05-04T13:07:38.605Z,99.30
2023-05-04T13:10:27.017Z,99.20
2023-05-04T13:13:17.955Z,99.40
2023-05-04T13:16:06.865Z,98.90
2023-05-04T13:18:55.476Z,98.00
2023-05-04T13:21:44.166Z,98.10
2023-05-04T13:24:32.063Z,98.40
2023-05-04T13:27:20.070Z,98.70
2023-05-04T13:30:10.930Z,98.60
2023-05-04T13:32:59.004Z,97.70
2023-05-04T13:35:46.939Z,98.30
2023-05-04T13:38:35.011Z,97.60
2023-05-04T13:41:23.070Z,98.40
2023-05-04T13:44:11.221Z,98.20
2023-05-04T13:47:03.190Z,97.80
2023-05-04T13:49:51.435Z,96.60
2023-05-04T13:52:39.405Z,97.80
2023-05-04T13:55:27.561Z,98.30
2023-05-04T13:58:15.488Z,97.20
2023-05-04T14:01:03.517Z,95.60
2023-05-04T14:03:54.069Z,95.90
2023-05-04T14:06:42.031Z,95.80
2023-05-04T14:09:29.965Z,94.60
2023-05-04T14:12:19.724Z,93.30
2023-05-04T14:15:08.704Z,93.20
2023-05-04T14:17:56.833Z,94.60
2023-05-04T14:20:46.218Z,95.00
2023-05-04T14:23:34.274Z,94.50
2023-05-04T14:26:22.294Z,95.00
2023-05-04T14:29:10.277Z,94.00
2023-05-04T14:31:58.187Z,92.60
2023-05-04T14:34:47.799Z,92.30
2023-05-04T14:37:39.890Z,92.50
2023-05-04T14:40:28.200Z,92.20
2023-05-04T14:43:16.205Z,91.80
2023-05-04T14:46:04.245Z,90.60
2023-05-04T14:48:52.455Z,90.30
2023-05-04T14:51:40.408Z,87.30
2023-05-04T14:54:30.172Z,87.20
2023-05-04T14:57:18.133Z,90.00
2023-05-04T15:00:08.791Z,87.70
2023-05-04T15:02:57.183Z,82.50
2023-05-04T15:05:45.493Z,84.20
2023-05-04T15:08:33.442Z,84.10
2023-05-04T15:11:22.708Z,82.70
2023-05-04T15:14:10.628Z,83.10
2023-05-04T15:16:58.539Z,84.30
2023-05-04T15:19:46.400Z,84.10
2023-05-04T15:22:34.490Z,80.70
2023-05-04T15:25:24.881Z,83.10
2023-05-04T15:28:14.229Z,80.50
2023-05-04T15:31:03.555Z,78.20
2023-05-04T15:33:51.591Z,74.30
2023-05-04T15:36:39.570Z,75.00
2023-05-04T15:39:27.526Z,72.00
2023-05-04T15:42:15.547Z,72.10
2023-05-04T15:45:05.469Z,71.40
2023-05-04T15:47:54.240Z,69.20
2023-05-04T15:50:42.515Z,67.90
2023-05-04T15:53:30.495Z,69.60
2023-05-04T15:56:18.594Z,68.30
2023-05-04T15:59:06.624Z,66.30
2023-05-04T16:01:56.040Z,69.30
2023-05-04T16:04:43.956Z,68.00
2023-05-04T16:07:31.990Z,64.50
2023-05-04T16:10:20.279Z,64.50
2023-05-04T16:13:09.933Z,64.20
2023-05-04T16:15:59.912Z,63.50
2023-05-04T16:18:49.229Z,64.50
2023-05-04T16:21:37.169Z,64.50
2023-05-04T16:24:25.812Z,66.60
2023-05-04T16:27:13.770Z,63.20
2023-05-04T16:30:01.749Z,62.20
2023-05-04T16:32:50.070Z,60.90
2023-05-04T16:35:39.726Z,59.70
2023-05-04T16:38:27.675Z,61.10
2023-05-04T16:41:15.758Z,61.20
2023-05-04T16:44:03.717Z,60.10
2023-05-04T16:46:52.054Z,59.10
2023-05-04T16:49:39.903Z,57.80
2023-05-04T16:52:29.187Z,59.00
2023-05-04T16:55:17.164Z,58.70
2023-05-04T16:58:05.436Z,58.80
2023-05-04T17:00:53.485Z,59.00
2023-05-04T17:03:41.641Z,58.30
2023-05-04T17:06:29.636Z,58.10
2023-05-04T17:09:18.858Z,59.00
2023-05-04T17:12:07.491Z,59.40
2023-05-04T17:14:55.642Z,59.90
2023-05-04T17:17:43.693Z,59.50
2023-05-04T17:20:31.983Z,58.40
2023-05-04T17:23:20.288Z,58.20
2023-05-04T17:26:10.355Z,57.60
2023-05-04T17:28:58.489Z,57.80
2023-05-04T17:31:46.448Z,58.00
2023-05-04T17:34:34.381Z,58.40
2023-05-04T17:37:22.304Z,58.50
2023-05-04T17:40:11.310Z,58.60
2023-05-04T17:43:01.327Z,57.90
2023-05-04T17:45:49.535Z,57.50
2023-05-04T17:48:37.578Z,57.70
2023-05-04T17:51:25.839Z,57.40
2023-05-04T17:54:13.770Z,57.50
2023-05-04T17:57:01.696Z,57.20
2023-05-04T17:59:50.962Z,57.80
2023-05-04T18:02:39.192Z,58.40
2023-05-04T18:05:27.219Z,58.70
2023-05-04T18:08:15.630Z,59.00
2023-05-04T18:11:03.631Z,59.40
2023-05-04T18:13:51.943Z,59.70
2023-05-04T18:16:41.301Z,59.60
2023-05-04T18:19:29.488Z,58.80
2023-05-04T18:22:17.945Z,59.00
2023-05-04T18:25:06.827Z,59.10
2023-05-04T18:27:54.775Z,59.80
2023-05-04T18:30:42.868Z,60.10
2023-05-04T18:33:32.495Z,59.90
2023-05-04T18:36:20.480Z,59.20
2023-05-04T18:39:08.748Z,59.60
2023-05-04T18:41:56.769Z,59.20
2023-05-04T18:44:44.749Z,59.00
2023-05-04T18:47:32.756Z,58.90
2023-05-04T18:50:22.049Z,58.90
2023-05-04T18:53:09.966Z,59.00
2023-05-04T18:56:02.736Z,59.00
2023-05-04T18:58:51.153Z,59.00
2023-05-04T19:01:39.391Z,59.30
2023-05-04T19:04:27.620Z,59.80
2023-05-04T19:07:17.778Z,59.70
2023-05-04T19:10:07.206Z,59.80
2023-05-04T19:12:55.931Z,59.90
2023-05-04T19:15:44.222Z,60.90
2023-05-04T19:18:34.305Z,60.80
2023-05-04T19:21:22.667Z,60.50
2023-05-04T19:24:11.984Z,61.20
2023-05-04T19:27:00.737Z,61.60
2023-05-04T19:29:48.782Z,61.60
2023-05-04T19:32:38.698Z,61.60
2023-05-04T19:35:26.899Z,62.40
2023-05-04T19:38:14.872Z,61.50
2023-05-04T19:41:04.292Z,62.60
2023-05-04T19:43:52.234Z,64.10
2023-05-04T19:46:40.179Z,63.10
2023-05-04T19:49:28.194Z,64.10
2023-05-04T19:52:16.614Z,64.40
2023-05-04T19:55:04.592Z,66.20
2023-05-04T19:57:54.091Z,66.30
2023-05-04T20:00:42.086Z,67.10
2023-05-04T20:03:30.341Z,67.50
2023-05-04T20:06:18.297Z,67.80
2023-05-04T20:09:06.724Z,68.70
2023-05-04T20:11:54.679Z,68.80
2023-05-04T20:14:44.278Z,69.30
2023-05-04T20:17:32.292Z,68.90
2023-05-04T20:20:22.597Z,69.50
2023-05-04T20:23:10.498Z,70.40
2023-05-04T20:25:58.830Z,71.80
2023-05-04T20:28:46.805Z,71.60
2023-05-04T20:31:36.291Z,72.00
2023-05-04T20:34:24.357Z,72.60
2023-05-04T20:37:12.298Z,73.20
2023-05-04T20:40:00.278Z,73.40
2023-05-04T20:42:48.274Z,73.90
2023-05-04T20:45:36.193Z,74.50
2023-05-04T20:48:25.643Z,75.90
2023-05-04T20:51:15.108Z,76.90
2023-05-04T20:54:03.625Z,77.60
2023-05-04T20:56:51.559Z,78.50
2023-05-04T20:59:39.503Z,79.20
2023-05-04T21:02:27.494Z,80.30
2023-05-04T21:05:17.037Z,81.20
2023-05-04T21:08:05.377Z,82.10
2023-05-04T21:10:53.466Z,83.10
2023-05-04T21:13:41.423Z,83.60
2023-05-04T21:16:29.446Z,84.40
2023-05-04T21:19:17.538Z,85.90
2023-05-04T21:22:06.853Z,87.00
2023-05-04T21:24:54.810Z,88.30
2023-05-04T21:27:44.411Z,89.10
2023-05-04T21:30:32.575Z,89.90
2023-05-04T21:33:20.865Z,90.20
2023-05-04T21:36:13.636Z,90.60
2023-05-04T21:39:03.281Z,91.30
2023-05-04T21:41:51.214Z,91.60
2023-05-04T21:44:39.282Z,92.10
2023-05-04T21:47:27.974Z,92.60
2023-05-04T21:50:16.246Z,92.90
2023-05-04T21:53:04.222Z,93.10
2023-05-04T21:55:53.491Z,93.60
2023-05-04T21:58:42.069Z,94.10
2023-05-04T22:01:30.121Z,94.40
2023-05-04T22:04:18.193Z,94.60
2023-05-04T22:07:06.161Z,94.80
2023-05-04T22:09:54.118Z,95.10
2023-05-04T22:12:43.435Z,95.40
2023-05-04T22:15:42.034Z,95.80
2023-05-04T22:18:34.480Z,95.80
2023-05-04T22:21:22.455Z,95.90
2023-05-04T22:24:10.639Z,96.40
2023-05-04T22:26:58.706Z,96.90
2023-05-04T22:29:48.016Z,97.50
2023-05-04T22:32:36.026Z,98.00
2023-05-04T22:35:24.239Z,98.10
2023-05-04T22:38:14.254Z,98.20
2023-05-04T22:41:02.387Z,98.30
2023-05-04T22:43:50.360Z,98.50
2023-05-04T22:46:39.793Z,98.70
2023-05-04T22:49:27.851Z,99.00
2023-05-04T22:52:16.032Z,99.10
2023-05-04T22:55:04.045Z,99.10
2023-05-04T22:57:52.135Z,99.20
2023-05-04T23:00:40.057Z,99.40
2023-05-04T23:03:29.858Z,99.60
2023-05-04T23:06:17.986Z,99.90
2023-05-04T23:09:06.006Z,99.80
2023-05-04T23:11:54.200Z,99.90
2023-05-04T23:14:42.363Z,99.90
2023-05-04T23:17:30.457Z,99.90
2023-05-04T23:20:19.860Z,99.90
2023-05-04T23:23:07.797Z,99.80
2023-05-04T23:25:55.962Z,99.80
2023-05-04T23:28:44.309Z,99.90
2023-05-04T23:31:32.287Z,99.90
2023-05-04T23:34:20.300Z,99.90
2023-05-04T23:37:09.699Z,99.90
2023-05-04T23:39:57.693Z,99.90
2023-05-04T23:42:49.357Z,99.90
2023-05-04T23:45:37.422Z,99.90
2023-05-04T23:48:25.378Z,99.90
2023-05-04T23:51:13.355Z,99.90
2023-05-04T23:54:02.641Z,99.90
2023-05-04T23:56:50.501Z,99.90
2023-05-04T23:59:40.241Z,99.90
